Terminal Aerodrome Forecast
Issued by NWS

Home | Current Version | Previous Version | Text Only | Print | Product List | Glossary On
Versions: 1 2 3 4 5 6 7 8 9 10 11 12 13 14
000
FTUS46 KPDT 040530
TAFRDM
TAF
KRDM 040530Z 0406/0506 32004KT P6SM SCT070
     FM041200 34005KT P6SM VCSH BKN050 OVC100
     FM041900 33012G20KT P6SM VCSH OVC050
     FM050200 32010KT P6SM -SHRA OVC035=

USA.gov is the U.S. government's official web portal to all federal, state and local government web resources and services.